Eldorado Springs, CO (80025)

5:19 PM MST on February 21, 2017 (GMT -0700)
Eldorado Springs, CO 80025 | | Change Station
Active Advisory: Fire Weather Warning

Elev 5832 ft 39.93 °N, 105.28 °W | Updated 8 seconds ago

Clear
Clear
60.3 °F
Feels Like 60.3 °F
N
2.0
Wind Variable Wind from NE

Today
High -- | Low -- °F
--% Chance of Precip.
Yesterday
High -- | Low -- °F
Precip. -- in
Pressure 29.97 in
Visibility 10.0 miles
Clouds Clear
Dew Point 16 °F
Humidity 17%
Rainfall 0.00 in
Snow Depth Not available.
6:45 AM 5:44 PM
Waning Crescent, 21% visible
METAR KBDU 220016Z AUTO 27007KT 10SM CLR 17/M09 A2997 RMK AO2
Pressure 29.97 in
Visibility 10.0 miles
Clouds Clear
Dew Point 16 °F
Humidity 17%
Rainfall 0.00 in
Snow Depth Not available.
6:45 AM 5:44 PM
Waning Crescent, 21% visible
METAR KBDU 220016Z AUTO 27007KT 10SM CLR 17/M09 A2997 RMK AO2

Get Your Daily Forecast Email!

Thanks for signing up!

Be on the lookout for a verification email in your inbox.

You'll start receiving the daily forecast at 8 AM.

×

10-Day Weather Forecast

Almanac

Astronomy

Feb. 21, 2017 Rise Set
Actual Time
Civil Twilight
Nautical Twilight
Astronomical Twilight
Moon
Length of Visible Light
Length of Day
Tomorrow will be .
, % of the Moon is Illuminated

Today's Extremes

State Highs State Lows

Community

WunderPhotos

Upload Photos

1,962,540 photos uploaded!

WunderBlog® & News

Nearby

Air Quality

  Air Quality AQ Index Pollutant
Not available.

Snow Depth

Station Depth Elevation

Earthquake Activity

City Distance Mag. Time & Date
Minimum magnitude displayed is 2.5.

Coastal Water Temperatures

Place Temperature

Stations

Nearby Weather Stations

Station Location Temp. Windchill Dew Point Humidity Wind Precip. Elev Updated Type
                   

Watches & Warnings

Fire Weather Warning
Issued: 2:01 PM MST Feb. 21, 2017 – National Weather Service

... Red flag warning remains in effect until 6 PM MST this evening
for wind and low relative humidity for the Front Range foothills
below 7500 feet...

* affected area... fire weather zones 215 and 216.

* Timing... fire danger will remain high through 6 PM this evening
with a gradual improvement thereafter.

* Winds... southwest 15 to 25 mph with gusts up to 40 mph.

* Relative humidity... as low as 15 percent.

* Impacts... if a fire starts, it will be capable of spreading
rapidly through grasses and brush due to the strong winds.

Precautionary/preparedness actions...

A red flag warning means that critical fire weather conditions
are either occurring now... .or will shortly. A combination of
strong winds... low relative humidity... and very warm temperatures
will contribute to extreme fire behavior.